Latest Coastal Weather Observations for Broome Port

IDW60701

Issued at 10:42 am WST Wednesday 29 July 2015 (issued every 10 minutes, with the page automatically refreshed every 10 minutes)

About coastal observations | Map of coastal stations | Coastal observations for WA | Marine services | Other Formats
Station Details ID: 003102 Name: BROOME NTC AWS Lat: -18.00 Lon: 122.22 Height: 0.0 m
Data from the previous 72 hours. | See also: Recent months for locations in Western Australia
Date/Time
WST
Temp

°C
Wind Pressure Rain
since 9am
mm
Weather Cloud Vis
km
Sea
Height
m
Swell
Dir
 
Speed
knots
Gust
knots
hPa Trend Height
m
Period
s
Dir
29/10:30am 25.6 ESE 7 13 1018.5 - - - - - - - - -
29/10:00am 25.2 ESE 7 12 1018.7 - - - - - - - - -
29/09:30am 24.7 SE 5 13 1018.9 - - - - - - - - -
29/09:00am 23.2 SE 5 10 1019.2 - - - - - - - - -
29/08:30am 22.0 SE 6 15 1019.1 - - - - - - - - -
29/08:00am 21.4 SE 6 12 1018.9 - - - - - - - - -
29/07:30am 21.2 ESE 5 10 1018.6 - - - - - - - - -
29/07:00am 21.3 SE 2 7 1018.4 - - - - - - - - -
29/06:30am 21.4 ESE 5 11 1018.2 - - - - - - - - -
29/06:00am 22.1 ESE 10 16 1018.0 - - - - - - - - -
29/05:30am 22.1 ESE 5 9 1017.8 - - - - - - - - -
29/05:00am 22.2 ESE 6 10 1017.6 - - - - - - - - -
29/04:30am 22.7 ESE 7 10 1017.6 - - - - - - - - -
29/04:00am 24.0 ESE 9 13 1017.6 - - - - - - - - -
29/03:30am 24.5 ESE 6 10 1017.5 - - - - - - - - -
29/03:00am 24.5 SE 6 8 1017.6 - - - - - - - - -
29/02:30am 25.3 SSE 8 8 1017.6 - - - - - - - - -
29/02:00am 23.6 S 6 7 1017.7 - - - - - - - - -
29/01:30am 23.4 SSW 6 7 1017.9 - - - - - - - - -
29/01:00am 24.8 WSW 6 6 1017.9 - - - - - - - - -
29/12:30am 24.8 W 4 5 1018.1 - - - - - - - - -
29/12:00am 24.3 WNW 2 4 1018.3 - - - - - - - - -
 
Date/Time
WST
Temp

°C
Wind Pressure Rain
since 9am
mm
Weather Cloud Vis
km
Sea
Height
m
Swell
Dir
 
Speed
knots
Gust
knots
hPa Trend Height
m
Period
s
Dir
28/11:30pm 25.3 W 3 4 1018.3 - - - - - - - - -
28/11:00pm 25.0 N 2 5 1018.4 - - - - - - - - -
28/10:30pm 26.4 W 7 8 1018.4 - - - - - - - - -
28/10:00pm 26.2 WSW 7 8 1018.5 - - - - - - - - -
28/09:30pm 25.8 WSW 7 9 1018.5 - - - - - - - - -
28/09:00pm 26.4 SSE 3 6 1018.4 - - - - - - - - -
28/08:30pm 26.0 W 3 4 1018.2 - - - - - - - - -
28/08:00pm 25.0 NW 6 7 1018.0 - - - - - - - - -
28/07:30pm 24.7 N 4 6 1017.7 - - - - - - - - -
28/07:00pm 24.7 NNW 5 7 1017.3 - - - - - - - - -
28/06:30pm 25.7 NW 7 9 1016.8 - - - - - - - - -
28/06:00pm 26.3 NNW 7 8 1016.4 - - - - - - - - -
28/05:30pm 31.4 ESE 8 11 1015.9 - - - - - - - - -
28/05:00pm 31.2 SE 6 9 1015.6 - - - - - - - - -
28/04:30pm 31.1 SE 8 9 1015.4 - - - - - - - - -
28/04:00pm 30.9 SE 9 10 1015.3 - - - - - - - - -
28/03:30pm 30.3 SE 7 9 1015.2 - - - - - - - - -
28/03:00pm 29.8 SSE 8 10 1015.3 - - - - - - - - -
28/02:30pm 29.1 SE 7 9 1015.4 - - - - - - - - -
28/02:00pm 29.9 SE 9 11 1015.6 - - - - - - - - -
28/01:30pm 30.3 ESE 6 9 1016.0 - - - - - - - - -
28/01:00pm 30.8 ESE 7 12 1016.4 - - - - - - - - -
28/12:30pm 30.2 ESE 9 13 1016.9 - - - - - - - - -
28/12:00pm 28.3 ESE 8 12 1017.6 - - - - - - - - -
28/11:30am 28.5 ESE 9 15 1018.3 - - - - - - - - -
28/11:00am 28.0 ESE 8 16 1018.6 - - - - - - - - -
28/10:30am 26.9 ESE 10 16 1019.0 - - - - - - - - -
28/10:00am 26.1 ESE 12 16 1019.3 - - - - - - - - -
28/09:30am 25.4 ESE 10 16 1019.6 - - - - - - - - -
28/09:00am 24.8 ESE 11 17 1019.4 - - - - - - - - -
28/08:30am 24.3 ESE 11 18 1019.2 - - - - - - - - -
28/08:00am 23.9 ESE 9 17 1018.9 - - - - - - - - -
28/07:30am 23.4 SE 6 14 1018.6 - - - - - - - - -
28/07:00am 23.4 ESE 8 15 1018.5 - - - - - - - - -
28/06:30am 22.4 ESE 7 13 1018.0 - - - - - - - - -
28/06:00am 22.8 SE 6 12 1017.7 - - - - - - - - -
28/05:30am 22.6 SE 6 10 1017.4 - - - - - - - - -
28/05:00am 23.0 SE 6 8 1017.1 - - - - - - - - -
28/04:30am 23.2 SE 7 10 1017.0 - - - - - - - - -
28/04:00am 23.8 SE 10 13 1016.8 - - - - - - - - -
28/03:30am 24.1 SE 8 11 1016.7 - - - - - - - - -
28/03:00am 24.2 SE 10 12 1016.7 - - - - - - - - -
28/02:30am 24.0 SE 9 11 1016.7 - - - - - - - - -
28/02:00am 25.0 SE 8 9 1016.9 - - - - - - - - -
28/01:30am 24.9 SE 8 9 1017.0 - - - - - - - - -
28/01:00am 23.7 SE 7 8 1017.2 - - - - - - - - -
28/12:30am 23.7 SE 6 7 1017.2 - - - - - - - - -
28/12:00am 23.6 SE 7 8 1017.3 - - - - - - - - -
 
Date/Time
WST
Temp

°C
Wind Pressure Rain
since 9am
mm
Weather Cloud Vis
km
Sea
Height
m
Swell
Dir
 
Speed
knots
Gust
knots
hPa Trend Height
m
Period
s
Dir
27/11:30pm 24.0 SSE 11 12 1017.3 - - - - - - - - -
27/11:00pm 24.5 SSE 15 16 1017.5 - - - - - - - - -
27/10:30pm 24.0 SSE 13 13 1017.7 - - - - - - - - -
27/10:00pm 24.9 SSE 13 14 1017.6 - - - - - - - - -
27/09:30pm 25.0 SSE 13 14 1017.6 - - - - - - - - -
27/09:00pm 25.5 SSE 13 14 1017.5 - - - - - - - - -
27/08:30pm 26.0 SSE 13 14 1017.5 - - - - - - - - -
27/08:00pm 27.1 SSE 13 14 1017.5 - - - - - - - - -
27/07:30pm 28.1 SSE 12 14 1017.2 - - - - - - - - -
27/07:00pm 30.4 SSE 14 14 1016.7 - - - - - - - - -
27/06:30pm 31.0 SSE 14 14 1016.2 - - - - - - - - -
27/06:00pm 31.1 SSE 13 14 1016.0 - - - - - - - - -
27/05:30pm 30.2 SE 12 14 1015.6 - - - - - - - - -
27/05:00pm 30.6 SSE 11 13 1015.1 - - - - - - - - -
27/04:30pm 29.1 SSE 11 13 1014.9 - - - - - - - - -
27/04:00pm 30.6 SE 11 13 1014.8 - - - - - - - - -
27/03:30pm 30.2 SE 12 13 1014.8 - - - - - - - - -
27/03:00pm 29.6 SE 13 14 1014.9 - - - - - - - - -
27/02:30pm 30.4 SE 14 15 1014.9 - - - - - - - - -
27/02:00pm 28.9 SE 12 13 1015.3 - - - - - - - - -
27/01:30pm 28.8 SE 14 15 1015.7 - - - - - - - - -
27/01:00pm 29.0 SE 15 16 1016.1 - - - - - - - - -
27/12:30pm 27.6 SE 16 17 1016.6 - - - - - - - - -
27/12:00pm 27.2 SE 16 17 1017.1 - - - - - - - - -
27/11:30am 25.6 SE 14 16 1017.8 - - - - - - - - -
27/11:00am 25.2 SE 17 18 1018.4 - - - - - - - - -
27/10:30am 24.7 SE 19 20 1018.8 - - - - - - - - -
27/10:00am 23.9 ESE 17 19 1019.4 - - - - - - - - -
27/09:30am 23.3 SE 17 19 1019.7 - - - - - - - - -
27/09:00am 22.6 SE 14 16 1020.0 - - - - - - - - -
27/08:30am 21.5 SE 14 16 1020.2 - - - - - - - - -
27/08:00am 21.2 SE 17 20 1019.9 - - - - - - - - -
27/07:30am 20.9 SE 18 21 1019.8 - - - - - - - - -
27/07:00am 20.9 SE 17 20 1019.4 - - - - - - - - -
27/06:30am 21.0 SE 16 19 1019.1 - - - - - - - - -
27/06:00am 21.1 SE 15 18 1019.0 - - - - - - - - -
27/05:30am 21.3 SE 16 19 1018.8 - - - - - - - - -
27/05:00am 21.6 SE 16 18 1018.5 - - - - - - - - -
27/04:30am 21.6 SE 13 15 1018.1 - - - - - - - - -
27/04:00am 21.7 SE 13 15 1017.9 - - - - - - - - -
27/03:30am 22.1 SE 17 20 1018.0 - - - - - - - - -
27/03:00am 22.3 SE 17 21 1018.1 - - - - - - - - -
27/02:30am 22.4 SE 17 20 1018.3 - - - - - - - - -
27/02:00am 22.8 SE 19 23 1018.3 - - - - - - - - -
27/01:30am 23.0 SSE 20 24 1018.4 - - - - - - - - -
27/01:00am 23.2 SSE 20 23 1018.5 - - - - - - - - -
27/12:30am 23.1 SSE 20 23 1018.6 - - - - - - - - -
27/12:00am 23.3 SSE 20 22 1018.7 - - - - - - - - -
 
Date/Time
WST
Temp

°C
Wind Pressure Rain
since 9am
mm
Weather Cloud Vis
km
Sea
Height
m
Swell
Dir
 
Speed
knots
Gust
knots
hPa Trend Height
m
Period
s
Dir
26/11:30pm 23.5 SSE 19 22 1018.9 - - - - - - - - -
26/11:00pm 23.6 S 19 21 1019.0 - - - - - - - - -
26/10:30pm 23.5 S 18 19 1019.0 - - - - - - - - -
26/10:00pm 23.3 S 15 16 1019.0 - - - - - - - - -
26/09:30pm 24.4 SSE 17 19 1018.9 - - - - - - - - -
26/09:00pm 25.2 S 14 17 1018.8 - - - - - - - - -
26/08:30pm 26.3 SSE 15 15 1018.7 - - - - - - - - -
26/08:00pm 27.5 SSE 15 16 1018.4 - - - - - - - - -
26/07:30pm 28.0 SSE 15 15 1018.1 - - - - - - - - -
26/07:00pm 28.8 SSE 15 16 1017.6 - - - - - - - - -
26/06:30pm 29.5 SSE 15 16 1017.2 - - - - - - - - -
26/06:00pm 29.3 SSE 16 17 1016.8 - - - - - - - - -
26/05:30pm 29.0 SSE 15 16 1016.3 - - - - - - - - -
26/05:00pm 29.8 SSE 15 16 1016.1 - - - - - - - - -
26/04:30pm 28.9 SSE 15 16 1015.9 - - - - - - - - -
26/04:00pm 28.5 SSE 11 12 1015.7 - - - - - - - - -
26/03:30pm 29.0 SSE 11 13 1015.7 - - - - - - - - -
26/03:00pm 28.5 SSE 11 13 1015.7 - - - - - - - - -
26/02:30pm 27.5 SSE 9 11 1015.9 - - - - - - - - -
26/02:00pm 27.3 SSE 8 10 1016.0 - - - - - - - - -
26/01:30pm 26.8 SE 10 11 1016.3 - - - - - - - - -
26/01:00pm 26.1 SE 12 13 1016.8 - - - - - - - - -
26/12:30pm 26.3 SE 11 13 1017.4 - - - - - - - - -
26/12:00pm 24.9 SE 12 13 1018.0 - - - - - - - - -
26/11:30am 24.3 SE 12 14 1018.6 - - - - - - - - -
26/11:00am 23.7 SE 13 16 1019.2 - - - - - - - - -

Other Formats:

Comma delimited format used in spreadsheet applications
http://www.bom.gov.au/fwo/IDW60701/IDW60701.95202.axf

JavaScript Object Notation format (JSON) in row-major order
http://www.bom.gov.au/fwo/IDW60701/IDW60701.95202.json